Time;durP1;ratioP1;P1;durP2;ratioP2;P2;SDS_P1;SDS_P2;PMS_P1;PMS_P2;Temp;Humidity;BMP_temperature;BMP_pressure;BME280_temperature;BME280_humidity;BME280_pressure;Samples;Min_cycle;Max_cycle;Signal;HPM_P1;HPM_P2
2022/04/09 00:02:38;;;;;;;7.70;3.42;;;;;;;;;;10370144;28;20018;-54
2022/04/09 00:07:39;;;;;;;6.00;3.00;;;;;;;;;;10369433;28;20482;-55
2022/04/09 00:12:44;;;;;;;5.72;2.72;;;;;;;;;;10370100;28;20045;-51
2022/04/09 00:17:47;;;;;;;5.70;2.58;;;;;;;;;;10368266;28;20030;-54
2022/04/09 00:22:47;;;;;;;10.77;3.30;;;;;;;;;;10369547;28;20040;-53
2022/04/09 00:27:48;;;;;;;10.35;3.47;;;;;;;;;;10368776;28;20052;-53
2022/04/09 00:32:48;;;;;;;12.65;3.65;;;;;;;;;;10368893;28;20040;-48
2022/04/09 00:37:49;;;;;;;10.52;3.13;;;;;;;;;;10369061;28;20034;-52
2022/04/09 00:42:50;;;;;;;8.10;3.30;;;;;;;;;;10367544;28;20117;-51
2022/04/09 00:47:51;;;;;;;6.15;3.13;;;;;;;;;;10368228;28;20041;-49
2022/04/09 00:53:08;;;;;;;10.93;3.30;;;;;;;;;;10368248;28;20060;-51
2022/04/09 00:58:20;;;;;;;8.88;3.10;;;;;;;;;;10384212;28;20046;-56
2022/04/09 01:03:29;;;;;;;6.07;2.80;;;;;;;;;;10367966;28;20179;-57
2022/04/09 01:08:32;;;;;;;7.43;3.10;;;;;;;;;;10368151;28;20073;-57
2022/04/09 01:13:35;;;;;;;8.10;3.47;;;;;;;;;;10368063;28;20045;-55
2022/04/09 01:18:36;;;;;;;14.07;3.05;;;;;;;;;;10367302;28;20041;-55
2022/04/09 01:23:37;;;;;;;7.15;2.95;;;;;;;;;;10367705;28;20057;-55
2022/04/09 01:28:38;;;;;;;6.63;3.00;;;;;;;;;;10376575;28;20122;-53
2022/04/09 01:33:39;;;;;;;6.18;3.20;;;;;;;;;;10353403;28;20210;-53
2022/04/09 01:38:40;;;;;;;6.30;2.78;;;;;;;;;;10348826;28;20033;-51
2022/04/09 01:43:41;;;;;;;5.68;3.20;;;;;;;;;;10380599;28;20181;-49
2022/04/09 01:48:43;;;;;;;11.00;3.00;;;;;;;;;;10380203;28;20030;-54
2022/04/09 01:53:43;;;;;;;5.35;2.88;;;;;;;;;;10360636;28;20053;-55
2022/04/09 01:58:44;;;;;;;10.85;3.22;;;;;;;;;;10390700;28;20057;-49
2022/04/09 02:03:44;;;;;;;5.38;2.72;;;;;;;;;;10346468;28;20552;-53
2022/04/09 02:08:45;;;;;;;4.63;2.58;;;;;;;;;;10364095;28;20478;-52
2022/04/09 02:13:45;;;;;;;8.55;3.03;;;;;;;;;;10379684;28;20026;-51
2022/04/09 02:18:46;;;;;;;5.80;2.80;;;;;;;;;;10379108;28;20280;-49
2022/04/09 02:23:47;;;;;;;6.90;2.80;;;;;;;;;;10379939;28;20022;-55
2022/04/09 02:28:49;;;;;;;6.43;3.40;;;;;;;;;;10377061;28;20486;-49
2022/04/09 02:33:49;;;;;;;5.72;3.20;;;;;;;;;;10367488;28;20042;-49
2022/04/09 02:38:50;;;;;;;8.77;3.05;;;;;;;;;;10397412;28;20481;-49
2022/04/09 02:43:51;;;;;;;8.18;3.05;;;;;;;;;;10413683;28;20021;-49
2022/04/09 02:48:51;;;;;;;4.78;2.65;;;;;;;;;;10378457;28;20037;-53
2022/04/09 02:53:52;;;;;;;5.50;2.72;;;;;;;;;;10387924;28;20037;-49
2022/04/09 02:58:52;;;;;;;6.60;2.97;;;;;;;;;;10413198;28;20041;-50
2022/04/09 03:03:53;;;;;;;5.85;3.05;;;;;;;;;;10413713;28;20052;-48
2022/04/09 03:08:54;;;;;;;5.03;2.72;;;;;;;;;;10413066;28;20029;-49
2022/04/09 03:13:54;;;;;;;7.60;2.70;;;;;;;;;;10412815;28;20385;-48
2022/04/09 03:18:55;;;;;;;4.30;2.22;;;;;;;;;;10413152;28;20436;-48
2022/04/09 03:23:55;;;;;;;5.32;2.70;;;;;;;;;;10376608;28;20038;-54
2022/04/09 03:28:56;;;;;;;6.95;3.15;;;;;;;;;;10370595;28;20037;-54
2022/04/09 03:33:57;;;;;;;7.70;2.92;;;;;;;;;;10370200;28;20036;-51
2022/04/09 03:38:57;;;;;;;4.20;2.50;;;;;;;;;;10369947;28;20030;-51
2022/04/09 03:43:58;;;;;;;6.20;2.92;;;;;;;;;;10377004;28;20526;-51
2022/04/09 03:48:58;;;;;;;7.93;3.05;;;;;;;;;;10384084;28;20037;-53
2022/04/09 03:53:59;;;;;;;5.13;2.90;;;;;;;;;;10368837;28;20034;-52
2022/04/09 03:59:00;;;;;;;4.78;2.55;;;;;;;;;;10369300;28;20049;-54
2022/04/09 04:04:00;;;;;;;3.92;2.25;;;;;;;;;;10368845;28;20181;-55
2022/04/09 04:09:01;;;;;;;4.53;2.72;;;;;;;;;;10368065;28;20030;-56
2022/04/09 04:14:03;;;;;;;4.53;2.42;;;;;;;;;;10368496;28;20041;-57
2022/04/09 04:19:04;;;;;;;8.07;2.65;;;;;;;;;;10369477;28;20030;-58
2022/04/09 04:24:05;;;;;;;5.00;2.50;;;;;;;;;;10368354;28;20044;-54
2022/04/09 04:29:06;;;;;;;3.63;2.40;;;;;;;;;;10368268;28;20038;-53
2022/04/09 04:34:07;;;;;;;4.93;2.42;;;;;;;;;;10363350;28;20633;-55
2022/04/09 04:39:07;;;;;;;5.95;2.88;;;;;;;;;;10377105;28;20397;-52
2022/04/09 04:44:10;;;;;;;4.22;2.55;;;;;;;;;;10375546;28;20026;-52
2022/04/09 04:49:10;;;;;;;8.90;2.38;;;;;;;;;;10369642;28;20100;-55
2022/04/09 04:54:11;;;;;;;4.35;2.20;;;;;;;;;;10367973;28;20540;-51
2022/04/09 04:59:11;;;;;;;4.45;2.03;;;;;;;;;;10366915;28;20057;-52
2022/04/09 05:04:12;;;;;;;9.43;2.90;;;;;;;;;;10366965;28;20429;-49
2022/04/09 05:09:15;;;;;;;8.82;3.10;;;;;;;;;;10367254;28;20060;-47
2022/04/09 05:14:16;;;;;;;17.60;2.25;;;;;;;;;;10366029;28;20116;-50
2022/04/09 05:19:17;;;;;;;8.52;3.22;;;;;;;;;;10362415;28;20030;-50
2022/04/09 05:24:17;;;;;;;12.52;2.85;;;;;;;;;;10362541;28;20034;-53
2022/04/09 05:29:18;;;;;;;8.73;2.72;;;;;;;;;;10364029;28;20034;-51
2022/04/09 05:34:18;;;;;;;9.52;2.40;;;;;;;;;;10365552;28;20026;-49
2022/04/09 05:39:19;;;;;;;3.55;2.45;;;;;;;;;;10365082;28;20045;-50
2022/04/09 05:44:20;;;;;;;12.40;2.60;;;;;;;;;;10377589;28;20104;-49
2022/04/09 05:49:20;;;;;;;7.82;3.00;;;;;;;;;;10353973;28;20062;-48
2022/04/09 05:54:21;;;;;;;6.78;2.67;;;;;;;;;;10358582;28;20037;-51
2022/04/09 05:59:24;;;;;;;7.30;2.60;;;;;;;;;;10358400;28;20041;-49
2022/04/09 06:04:25;;;;;;;10.98;2.75;;;;;;;;;;10374176;28;20540;-53
2022/04/09 06:09:25;;;;;;;9.38;3.03;;;;;;;;;;10399927;28;20080;-51
2022/04/09 06:14:26;;;;;;;5.60;2.72;;;;;;;;;;10370690;28;20241;-50
2022/04/09 06:19:27;;;;;;;6.85;3.33;;;;;;;;;;10373339;28;20498;-53
2022/04/09 06:24:27;;;;;;;4.53;2.63;;;;;;;;;;10372570;28;20521;-53
2022/04/09 06:29:28;;;;;;;7.55;2.60;;;;;;;;;;10372304;28;20088;-51
2022/04/09 06:34:29;;;;;;;9.10;2.80;;;;;;;;;;10363606;28;20038;-49
2022/04/09 06:39:29;;;;;;;7.95;2.58;;;;;;;;;;10373003;28;20258;-53
2022/04/09 06:44:30;;;;;;;6.43;2.70;;;;;;;;;;10374946;28;20041;-48
2022/04/09 06:49:30;;;;;;;5.88;2.67;;;;;;;;;;10372853;28;20022;-49
2022/04/09 06:54:31;;;;;;;6.90;3.10;;;;;;;;;;10372067;28;20025;-53
2022/04/09 06:59:32;;;;;;;10.45;2.80;;;;;;;;;;10372513;28;20042;-52
2022/04/09 07:04:32;;;;;;;6.45;2.88;;;;;;;;;;10371920;28;20393;-55
2022/04/09 07:09:33;;;;;;;8.13;2.40;;;;;;;;;;10372545;28;20429;-52
2022/04/09 07:14:34;;;;;;;15.65;5.85;;;;;;;;;;10371580;28;20034;-49
2022/04/09 07:19:34;;;;;;;17.10;7.40;;;;;;;;;;10372068;28;20037;-49
2022/04/09 07:24:35;;;;;;;14.70;5.70;;;;;;;;;;10369192;28;20034;-50
2022/04/09 07:29:35;;;;;;;26.02;6.22;;;;;;;;;;10354073;28;20026;-49
2022/04/09 07:34:36;;;;;;;21.88;6.13;;;;;;;;;;10337098;28;20034;-52
2022/04/09 07:39:37;;;;;;;27.80;6.30;;;;;;;;;;10347051;28;20030;-52
2022/04/09 07:44:37;;;;;;;19.65;6.45;;;;;;;;;;10382290;28;20100;-52
2022/04/09 07:49:38;;;;;;;29.98;6.70;;;;;;;;;;10397840;28;20041;-50
2022/04/09 07:54:39;;;;;;;34.03;7.30;;;;;;;;;;10369583;28;20038;-52
2022/04/09 07:59:39;;;;;;;34.70;6.97;;;;;;;;;;10336042;28;20035;-52
2022/04/09 08:04:40;;;;;;;32.50;6.30;;;;;;;;;;10398105;28;20127;-54
2022/04/09 08:09:41;;;;;;;27.02;6.40;;;;;;;;;;10369677;28;20034;-53
2022/04/09 08:14:43;;;;;;;34.47;6.40;;;;;;;;;;10369482;28;20033;-55
2022/04/09 08:19:43;;;;;;;37.15;6.68;;;;;;;;;;10368886;28;20038;-48
2022/04/09 08:24:45;;;;;;;34.42;7.45;;;;;;;;;;10334617;28;20038;-52
2022/04/09 08:29:46;;;;;;;29.73;6.63;;;;;;;;;;10330745;28;20117;-51
2022/04/09 08:34:47;;;;;;;23.15;6.05;;;;;;;;;;10326041;28;20041;-50
2022/04/09 08:39:47;;;;;;;24.45;6.15;;;;;;;;;;10328853;28;20033;-53
2022/04/09 08:44:49;;;;;;;21.15;5.95;;;;;;;;;;10353285;28;20550;-54
2022/04/09 08:49:50;;;;;;;24.63;6.68;;;;;;;;;;10400373;28;20026;-52
2022/04/09 08:54:51;;;;;;;20.70;6.63;;;;;;;;;;10366779;28;20452;-52
2022/04/09 08:59:54;;;;;;;18.58;6.00;;;;;;;;;;10367750;28;20149;-51
2022/04/09 09:04:54;;;;;;;14.80;4.85;;;;;;;;;;10367459;28;20022;-50
2022/04/09 09:10:16;;;;;;;18.70;6.22;;;;;;;;;;10365698;28;20034;-50
2022/04/09 09:15:17;;;;;;;11.90;5.40;;;;;;;;;;10367962;28;20084;-52
2022/04/09 09:20:17;;;;;;;16.13;4.95;;;;;;;;;;10366733;28;20026;-51
2022/04/09 09:25:18;;;;;;;18.65;5.28;;;;;;;;;;10356331;28;20046;-50
2022/04/09 09:30:18;;;;;;;13.32;4.45;;;;;;;;;;10350710;28;20034;-51
2022/04/09 09:35:19;;;;;;;12.13;4.55;;;;;;;;;;10365992;28;20539;-53
2022/04/09 09:40:32;;;;;;;12.20;4.40;;;;;;;;;;10366577;28;20125;-52
2022/04/09 09:45:40;;;;;;;15.82;5.00;;;;;;;;;;10381697;28;20064;-52
2022/04/09 09:50:41;;;;;;;14.25;4.88;;;;;;;;;;10334913;28;20034;-52
2022/04/09 09:55:45;;;;;;;12.48;4.15;;;;;;;;;;10331361;28;20045;-52
2022/04/09 10:00:47;;;;;;;13.57;4.47;;;;;;;;;;10331470;28;20088;-51
2022/04/09 10:05:49;;;;;;;11.35;4.18;;;;;;;;;;10336369;28;20212;-52
2022/04/09 10:10:53;;;;;;;13.68;3.70;;;;;;;;;;10334702;28;20030;-49
2022/04/09 10:15:53;;;;;;;9.75;4.25;;;;;;;;;;10334783;28;20432;-51
2022/04/09 10:21:01;;;;;;;14.07;4.20;;;;;;;;;;10334272;28;20026;-50
2022/04/09 10:26:03;;;;;;;11.82;4.47;;;;;;;;;;10333137;28;20031;-51
2022/04/09 10:31:22;;;;;;;14.45;3.45;;;;;;;;;;10330737;28;20048;-53
2022/04/09 10:36:41;;;;;;;11.75;3.78;;;;;;;;;;10333942;28;20129;-50
2022/04/09 10:41:42;;;;;;;12.77;4.22;;;;;;;;;;10340663;28;20096;-52
2022/04/09 10:46:51;;;;;;;9.35;4.15;;;;;;;;;;10338998;28;20034;-50
2022/04/09 10:52:17;;;;;;;10.15;4.07;;;;;;;;;;10342597;28;20026;-55
2022/04/09 10:57:21;;;;;;;8.18;3.40;;;;;;;;;;10344364;28;20050;-50
2022/04/09 11:02:23;;;;;;;7.82;3.97;;;;;;;;;;10342764;28;20030;-49
2022/04/09 11:07:24;;;;;;;9.50;4.00;;;;;;;;;;10369381;28;20515;-48
2022/04/09 11:12:39;;;;;;;13.43;4.65;;;;;;;;;;10338715;28;20029;-49
2022/04/09 11:17:45;;;;;;;20.88;4.72;;;;;;;;;;10369461;28;20474;-56
2022/04/09 11:22:48;;;;;;;15.05;4.43;;;;;;;;;;10366422;28;20496;-54
2022/04/09 11:28:03;;;;;;;24.38;5.57;;;;;;;;;;10358643;28;20038;-52
2022/04/09 11:33:04;;;;;;;19.90;4.80;;;;;;;;;;10358375;28;20521;-55
2022/04/09 11:38:10;;;;;;;29.73;5.28;;;;;;;;;;10360407;28;20117;-51
2022/04/09 11:43:10;;;;;;;30.00;4.40;;;;;;;;;;10337968;28;20044;-59
2022/04/09 11:48:25;;;;;;;19.77;3.47;;;;;;;;;;10376917;28;20030;-60
2022/04/09 11:53:25;;;;;;;19.77;3.05;;;;;;;;;;10363614;28;20057;-60
2022/04/09 11:58:35;;;;;;;9.90;2.67;;;;;;;;;;10335803;28;20038;-49
2022/04/09 12:03:36;;;;;;;22.25;2.53;;;;;;;;;;10348133;28;20046;-47
2022/04/09 12:08:37;;;;;;;23.27;3.05;;;;;;;;;;10355046;28;20069;-47
2022/04/09 12:13:39;;;;;;;36.40;2.85;;;;;;;;;;10346087;28;20461;-50
2022/04/09 12:18:41;;;;;;;31.42;3.92;;;;;;;;;;10363883;28;20059;-49
2022/04/09 12:23:42;;;;;;;39.75;4.85;;;;;;;;;;10359633;28;20431;-46
2022/04/09 12:28:42;;;;;;;33.75;3.05;;;;;;;;;;10347656;28;20100;-46
2022/04/09 12:33:58;;;;;;;32.65;3.30;;;;;;;;;;10352146;28;20034;-47
2022/04/09 12:39:00;;;;;;;54.97;3.97;;;;;;;;;;10357094;28;20030;-47
2022/04/09 12:44:01;;;;;;;23.88;3.45;;;;;;;;;;10357503;28;20026;-46
2022/04/09 12:49:01;;;;;;;22.85;2.95;;;;;;;;;;10368606;28;20575;-46
2022/04/09 12:54:02;;;;;;;25.83;3.85;;;;;;;;;;10336775;28;20409;-49
2022/04/09 12:59:03;;;;;;;23.67;3.03;;;;;;;;;;10367462;28;20128;-46
2022/04/09 13:04:04;;;;;;;28.77;3.85;;;;;;;;;;10367648;28;20018;-45
2022/04/09 13:09:05;;;;;;;23.80;2.65;;;;;;;;;;10367627;28;20061;-47
2022/04/09 13:14:06;;;;;;;10.65;2.17;;;;;;;;;;10367735;28;20038;-46
2022/04/09 13:19:06;;;;;;;14.23;2.70;;;;;;;;;;10336020;28;20025;-46
2022/04/09 13:24:07;;;;;;;15.55;2.40;;;;;;;;;;10324282;28;20030;-48
2022/04/09 13:29:08;;;;;;;17.95;2.13;;;;;;;;;;10327250;28;20057;-46
2022/04/09 13:34:14;;;;;;;20.88;2.60;;;;;;;;;;10327151;28;20019;-46
2022/04/09 13:39:16;;;;;;;15.35;1.88;;;;;;;;;;10329108;28;20629;-46
2022/04/09 13:44:17;;;;;;;10.68;2.20;;;;;;;;;;10334195;28;20089;-45
2022/04/09 13:49:17;;;;;;;9.02;2.13;;;;;;;;;;10327725;28;20069;-50
2022/04/09 13:54:18;;;;;;;11.80;2.60;;;;;;;;;;10333409;28;20045;-46
2022/04/09 13:59:18;;;;;;;11.23;2.65;;;;;;;;;;10333659;28;20454;-46
2022/04/09 14:04:19;;;;;;;8.15;2.10;;;;;;;;;;10326956;28;20034;-47
2022/04/09 14:09:20;;;;;;;10.70;2.25;;;;;;;;;;10336454;28;20106;-48
2022/04/09 14:14:20;;;;;;;7.30;2.05;;;;;;;;;;10358584;28;20038;-46
2022/04/09 14:19:21;;;;;;;11.07;2.20;;;;;;;;;;10344659;28;20030;-49
2022/04/09 14:24:22;;;;;;;6.28;1.75;;;;;;;;;;10327235;28;20026;-46
2022/04/09 14:29:22;;;;;;;4.07;1.88;;;;;;;;;;10325442;28;20081;-47
2022/04/09 14:34:23;;;;;;;5.90;2.00;;;;;;;;;;10329656;28;20052;-46
2022/04/09 14:39:23;;;;;;;6.70;2.00;;;;;;;;;;10334270;28;20590;-46
2022/04/09 14:44:24;;;;;;;4.45;1.48;;;;;;;;;;10383343;28;20040;-47
2022/04/09 14:49:25;;;;;;;5.55;2.22;;;;;;;;;;10414413;28;20041;-46
2022/04/09 14:54:25;;;;;;;3.10;1.45;;;;;;;;;;10375766;28;20030;-47
2022/04/09 14:59:26;;;;;;;3.67;1.48;;;;;;;;;;10372625;28;20108;-48
2022/04/09 15:04:27;;;;;;;8.25;1.80;;;;;;;;;;10372154;28;20401;-46
2022/04/09 15:09:27;;;;;;;4.95;1.60;;;;;;;;;;10372371;28;20028;-46
2022/04/09 15:14:29;;;;;;;4.80;1.50;;;;;;;;;;10372097;28;20064;-45
2022/04/09 15:19:30;;;;;;;5.82;1.80;;;;;;;;;;10366186;28;20061;-46
2022/04/09 15:24:31;;;;;;;6.50;1.30;;;;;;;;;;10337092;28;20479;-48
2022/04/09 15:29:32;;;;;;;2.55;1.48;;;;;;;;;;10354109;28;20069;-48
2022/04/09 15:34:32;;;;;;;5.22;1.55;;;;;;;;;;10370922;28;20038;-47
2022/04/09 15:39:34;;;;;;;4.90;1.60;;;;;;;;;;10371250;28;20033;-45
2022/04/09 15:44:35;;;;;;;6.53;1.65;;;;;;;;;;10381981;28;20445;-46
2022/04/09 15:49:37;;;;;;;4.60;1.50;;;;;;;;;;10380271;28;20029;-46
2022/04/09 15:54:42;;;;;;;3.55;1.52;;;;;;;;;;10370962;28;20026;-47
2022/04/09 15:59:42;;;;;;;6.82;1.73;;;;;;;;;;10370168;28;20386;-46
2022/04/09 16:04:44;;;;;;;6.97;1.10;;;;;;;;;;10369790;28;20056;-46
2022/04/09 16:09:44;;;;;;;4.85;1.80;;;;;;;;;;10369748;28;20108;-45
2022/04/09 16:14:45;;;;;;;4.35;1.40;;;;;;;;;;10369956;28;20100;-46
2022/04/09 16:19:46;;;;;;;11.43;2.08;;;;;;;;;;10369448;28;20029;-46
2022/04/09 16:24:47;;;;;;;6.53;1.88;;;;;;;;;;10368737;28;20269;-48
2022/04/09 16:29:47;;;;;;;5.88;1.50;;;;;;;;;;10380505;28;20248;-46
2022/04/09 16:34:48;;;;;;;2.90;1.40;;;;;;;;;;10380984;28;20080;-47
2022/04/09 16:39:49;;;;;;;3.20;1.55;;;;;;;;;;10369105;28;20056;-45
2022/04/09 16:44:49;;;;;;;11.32;1.52;;;;;;;;;;10381883;28;20036;-47
2022/04/09 16:49:53;;;;;;;4.32;1.38;;;;;;;;;;10342774;28;20026;-46
2022/04/09 16:54:54;;;;;;;2.95;1.20;;;;;;;;;;10327932;28;20077;-45
2022/04/09 16:59:54;;;;;;;2.85;1.45;;;;;;;;;;10360228;28;20042;-45
2022/04/09 17:04:55;;;;;;;2.60;0.93;;;;;;;;;;10367897;28;20273;-46
2022/04/09 17:09:57;;;;;;;2.53;1.25;;;;;;;;;;10329397;28;20049;-47
2022/04/09 17:14:57;;;;;;;8.73;1.65;;;;;;;;;;10334623;28;20041;-47
2022/04/09 17:19:58;;;;;;;1.60;1.10;;;;;;;;;;10327239;28;20037;-55
2022/04/09 17:24:59;;;;;;;0.88;0.88;;;;;;;;;;10331764;28;20038;-62
2022/04/09 17:29:59;;;;;;;4.50;1.20;;;;;;;;;;10367755;28;20030;-46
2022/04/09 17:35:00;;;;;;;2.85;1.10;;;;;;;;;;10367367;28;20037;-46
2022/04/09 17:40:01;;;;;;;1.42;1.00;;;;;;;;;;10366752;28;20130;-46
2022/04/09 17:45:01;;;;;;;1.27;0.93;;;;;;;;;;10381801;28;20104;-46
2022/04/09 17:50:02;;;;;;;2.50;1.10;;;;;;;;;;10407815;28;20477;-46
2022/04/09 17:55:04;;;;;;;3.53;1.33;;;;;;;;;;10353973;28;20092;-45
2022/04/09 18:00:09;;;;;;;1.38;1.05;;;;;;;;;;10357770;28;20131;-46
2022/04/09 18:05:10;;;;;;;5.45;1.23;;;;;;;;;;10366613;28;20045;-50
2022/04/09 18:10:10;;;;;;;1.63;1.10;;;;;;;;;;10340435;28;20043;-49
2022/04/09 18:15:11;;;;;;;1.27;1.02;;;;;;;;;;10357132;28;20045;-47
2022/04/09 18:20:12;;;;;;;3.00;1.15;;;;;;;;;;10374470;28;20385;-46
2022/04/09 18:25:12;;;;;;;1.13;1.08;;;;;;;;;;10339167;28;20030;-46
2022/04/09 18:30:18;;;;;;;3.60;1.27;;;;;;;;;;10332152;28;20022;-46
2022/04/09 18:35:19;;;;;;;2.95;1.15;;;;;;;;;;10367832;28;20030;-45
2022/04/09 18:40:20;;;;;;;2.13;1.23;;;;;;;;;;10357983;28;20031;-46
2022/04/09 18:45:20;;;;;;;2.90;1.60;;;;;;;;;;10356352;28;20034;-46
2022/04/09 18:50:22;;;;;;;4.07;1.52;;;;;;;;;;10350567;28;20397;-47
2022/04/09 18:55:22;;;;;;;1.80;1.17;;;;;;;;;;10351617;28;20037;-48
2022/04/09 19:00:23;;;;;;;2.05;1.15;;;;;;;;;;10351099;28;20042;-47
2022/04/09 19:05:24;;;;;;;4.00;1.40;;;;;;;;;;10348151;28;20032;-46
2022/04/09 19:10:24;;;;;;;7.32;1.60;;;;;;;;;;10368758;28;20034;-47
2022/04/09 19:15:25;;;;;;;7.03;1.58;;;;;;;;;;10363847;28;20034;-46
2022/04/09 19:20:25;;;;;;;3.35;1.75;;;;;;;;;;10371187;28;20037;-46
2022/04/09 19:25:26;;;;;;;8.48;1.85;;;;;;;;;;10370649;28;20042;-47
2022/04/09 19:30:27;;;;;;;14.93;2.10;;;;;;;;;;10369792;28;20378;-46
2022/04/09 19:35:28;;;;;;;8.18;1.50;;;;;;;;;;10371039;28;20030;-46
2022/04/09 19:40:29;;;;;;;13.05;2.20;;;;;;;;;;10366104;28;20440;-52
2022/04/09 19:45:30;;;;;;;6.63;2.33;;;;;;;;;;10370384;28;20121;-47
2022/04/09 19:50:31;;;;;;;8.63;1.73;;;;;;;;;;10368779;28;20038;-46
2022/04/09 19:55:32;;;;;;;18.00;2.90;;;;;;;;;;10364513;28;20034;-47
2022/04/09 20:00:32;;;;;;;9.57;1.92;;;;;;;;;;10352923;28;20041;-46
2022/04/09 20:05:33;;;;;;;10.13;1.95;;;;;;;;;;10367884;28;20033;-46
2022/04/09 20:10:34;;;;;;;11.02;2.75;;;;;;;;;;10362906;28;20504;-60
2022/04/09 20:15:35;;;;;;;10.95;1.58;;;;;;;;;;10365901;28;20034;-55
2022/04/09 20:20:36;;;;;;;22.48;2.45;;;;;;;;;;10369270;28;20104;-55
2022/04/09 20:25:37;;;;;;;8.55;2.05;;;;;;;;;;10368374;28;20500;-52
2022/04/09 20:30:40;;;;;;;12.07;2.03;;;;;;;;;;10365727;28;20049;-53
2022/04/09 20:35:41;;;;;;;7.15;1.83;;;;;;;;;;10328246;28;20030;-53
2022/04/09 20:40:41;;;;;;;14.85;2.50;;;;;;;;;;10336812;28;20458;-54
2022/04/09 20:45:42;;;;;;;7.20;2.00;;;;;;;;;;10373358;28;20511;-53
2022/04/09 20:50:43;;;;;;;5.93;1.92;;;;;;;;;;10352843;28;20034;-58
2022/04/09 20:55:44;;;;;;;6.13;1.83;;;;;;;;;;10357165;28;20030;-54
2022/04/09 21:00:44;;;;;;;4.47;1.45;;;;;;;;;;10352138;28;20069;-54
2022/04/09 21:05:45;;;;;;;6.80;1.58;;;;;;;;;;10364992;28;20501;-55
2022/04/09 21:10:46;;;;;;;10.48;1.48;;;;;;;;;;10346135;28;20060;-55
2022/04/09 21:15:49;;;;;;;4.07;1.30;;;;;;;;;;10365550;28;20030;-56
2022/04/09 21:20:49;;;;;;;8.38;1.95;;;;;;;;;;10335500;28;20496;-52
2022/04/09 21:25:50;;;;;;;5.82;1.55;;;;;;;;;;10358314;28;20040;-56
2022/04/09 21:30:50;;;;;;;2.10;1.25;;;;;;;;;;10367065;28;20037;-54
2022/04/09 21:35:51;;;;;;;7.22;1.92;;;;;;;;;;10367159;28;20162;-53
2022/04/09 21:40:52;;;;;;;8.13;1.60;;;;;;;;;;10333270;28;20018;-52
2022/04/09 21:45:52;;;;;;;3.75;1.48;;;;;;;;;;10359106;28;20032;-54
2022/04/09 21:50:53;;;;;;;8.48;2.38;;;;;;;;;;10364563;28;20034;-54
2022/04/09 21:55:54;;;;;;;4.40;1.48;;;;;;;;;;10368304;28;20041;-48
2022/04/09 22:01:00;;;;;;;7.35;1.45;;;;;;;;;;10359099;28;20058;-47
2022/04/09 22:06:01;;;;;;;2.78;1.42;;;;;;;;;;10371370;28;20112;-47
2022/04/09 22:11:02;;;;;;;4.05;1.55;;;;;;;;;;10356650;28;20034;-47
2022/04/09 22:16:03;;;;;;;8.48;1.30;;;;;;;;;;10362778;28;20042;-47
2022/04/09 22:21:04;;;;;;;3.30;1.55;;;;;;;;;;10373469;28;20095;-47
2022/04/09 22:26:04;;;;;;;1.77;1.35;;;;;;;;;;10372619;28;20080;-48
2022/04/09 22:31:05;;;;;;;4.30;1.40;;;;;;;;;;10373301;28;20358;-46
2022/04/09 22:36:06;;;;;;;9.05;1.70;;;;;;;;;;10373067;28;20040;-47
2022/04/09 22:41:07;;;;;;;4.85;1.20;;;;;;;;;;10373198;28;20022;-47
2022/04/09 22:46:07;;;;;;;9.02;1.30;;;;;;;;;;10371250;28;20042;-47
2022/04/09 22:51:08;;;;;;;2.83;1.88;;;;;;;;;;10371667;28;20030;-48
2022/04/09 22:56:11;;;;;;;4.72;1.30;;;;;;;;;;10371472;28;20049;-47
2022/04/09 23:01:11;;;;;;;2.95;1.25;;;;;;;;;;10372347;28;20042;-47
2022/04/09 23:06:12;;;;;;;3.90;1.30;;;;;;;;;;10370128;28;20033;-48
2022/04/09 23:11:12;;;;;;;9.48;1.30;;;;;;;;;;10370789;28;20246;-48
2022/04/09 23:16:13;;;;;;;4.05;1.52;;;;;;;;;;10370659;28;20638;-48
2022/04/09 23:21:13;;;;;;;4.80;1.50;;;;;;;;;;10371127;28;20057;-47
2022/04/09 23:26:14;;;;;;;5.93;1.55;;;;;;;;;;10371532;28;20050;-47
2022/04/09 23:31:16;;;;;;;4.00;1.55;;;;;;;;;;10370626;28;20049;-47
2022/04/09 23:36:16;;;;;;;2.92;1.63;;;;;;;;;;10371338;28;20121;-50
2022/04/09 23:41:22;;;;;;;2.13;1.00;;;;;;;;;;10370670;28;20034;-49
2022/04/09 23:46:23;;;;;;;2.72;1.08;;;;;;;;;;10370340;28;20443;-48
2022/04/09 23:51:24;;;;;;;1.60;1.13;;;;;;;;;;10370056;28;20033;-50
2022/04/09 23:56:25;;;;;;;2.22;1.10;;;;;;;;;;10369932;28;20057;-48
